Time;durP1;ratioP1;P1;durP2;ratioP2;P2;SDS_P1;SDS_P2;PMS_P1;PMS_P2;Temp;Humidity;BMP_temperature;BMP_pressure;BME280_temperature;BME280_humidity;BME280_pressure;Samples;Min_cycle;Max_cycle;Signal;HPM_P1;HPM_P2
2022/05/21 00:02:09;;;;;;;3.65;3.40;;;;;;;13.48;75.62;101389.94;4955293;28;20529;-73
2022/05/21 00:04:36;;;;;;;4.40;3.90;;;;;;;13.35;76.00;101394.69;4956223;28;20006;-73
2022/05/21 00:07:02;;;;;;;3.75;3.45;;;;;;;13.37;75.85;101395.41;4975416;28;20117;-74
2022/05/21 00:09:28;;;;;;;4.32;3.55;;;;;;;13.27;76.50;101391.84;4957896;28;21009;-73
2022/05/21 00:11:54;;;;;;;3.75;3.45;;;;;;;13.25;76.71;101399.94;4971624;28;21093;-72
2022/05/21 00:14:20;;;;;;;4.20;3.80;;;;;;;13.23;76.27;101393.94;4957880;28;20022;-73
2022/05/21 00:16:46;;;;;;;6.38;4.20;;;;;;;13.17;76.75;101386.50;4970040;28;20095;-74
2022/05/21 00:19:11;;;;;;;4.60;4.00;;;;;;;13.27;76.01;101390.03;4991431;28;20522;-73
2022/05/21 00:21:37;;;;;;;4.28;3.88;;;;;;;13.36;75.64;101385.72;4989673;28;20875;-72
2022/05/21 00:24:02;;;;;;;4.57;4.18;;;;;;;13.36;75.66;101385.72;4990988;28;20030;-72
2022/05/21 00:26:28;;;;;;;5.00;4.47;;;;;;;13.28;76.50;101385.56;4975372;28;20018;-73
2022/05/21 00:28:54;;;;;;;4.85;4.32;;;;;;;13.26;76.29;101387.53;4959396;28;20071;-73
2022/05/21 00:31:19;;;;;;;5.88;4.07;;;;;;;13.12;76.79;101383.44;4955500;28;20554;-72
2022/05/21 00:33:45;;;;;;;4.82;4.53;;;;;;;13.21;76.19;101393.22;4972069;28;20843;-73
2022/05/21 00:36:10;;;;;;;5.10;4.65;;;;;;;13.12;76.36;101391.41;4988844;28;20018;-73
2022/05/21 00:38:36;;;;;;;4.90;4.60;;;;;;;13.12;77.06;101391.41;4975258;28;20018;-72
2022/05/21 00:41:02;;;;;;;5.07;4.68;;;;;;;13.22;76.21;101381.63;4973739;28;19999;-73
2022/05/21 00:43:44;;;;;;;5.57;5.07;;;;;;;13.15;76.72;101380.50;4989408;28;20036;-73
2022/05/21 00:46:16;;;;;;;5.80;5.20;;;;;;;13.13;76.81;101379.78;4982922;28;20017;-73
2022/05/21 00:48:41;;;;;;;5.47;5.05;;;;;;;13.22;76.32;101394.91;4982242;28;20022;-73
2022/05/21 00:51:15;;;;;;;5.88;5.40;;;;;;;13.16;76.33;101395.47;4979072;28;20040;-73
2022/05/21 00:53:40;;;;;;;8.25;5.70;;;;;;;13.14;76.41;101394.75;4954581;28;20133;-72
2022/05/21 00:56:06;;;;;;;6.88;6.00;;;;;;;13.03;76.91;101396.56;4971942;28;20008;-72
2022/05/21 01:01:15;;;;;;;8.45;6.85;;;;;;;13.00;76.58;101396.84;4976074;28;20012;-73
2022/05/21 01:03:43;;;;;;;6.65;6.07;;;;;;;13.14;76.31;101400.94;4953502;28;20621;-73
2022/05/21 01:06:08;;;;;;;10.32;7.30;;;;;;;13.01;76.83;101397.69;4972308;28;20010;-74
2022/05/21 01:08:33;;;;;;;7.75;7.05;;;;;;;12.99;77.00;101399.66;4971059;28;20036;-74
2022/05/21 01:11:01;;;;;;;7.80;7.10;;;;;;;13.06;76.69;101390.16;4991030;28;20025;-73
2022/05/21 01:13:28;;;;;;;7.90;7.18;;;;;;;12.99;77.27;101389.84;4957595;28;20723;-73
2022/05/21 01:15:54;;;;;;;8.25;7.60;;;;;;;12.95;77.12;101396.41;4972496;28;20018;-73
2022/05/21 01:18:20;;;;;;;8.90;8.05;;;;;;;13.01;76.90;101389.72;4961000;28;20022;-73
2022/05/21 01:20:48;;;;;;;8.93;7.55;;;;;;;12.91;77.25;101380.88;4975548;28;20302;-74
2022/05/21 01:23:15;;;;;;;8.65;7.85;;;;;;;13.06;77.05;101385.66;4944143;28;20018;-73
2022/05/21 01:25:40;;;;;;;8.65;7.90;;;;;;;13.00;76.79;101386.22;4965720;28;20006;-74
2022/05/21 01:28:13;;;;;;;8.48;7.68;;;;;;;13.01;76.38;101382.56;4960309;28;20305;-72
2022/05/21 01:30:40;;;;;;;10.63;7.97;;;;;;;13.08;76.63;101387.34;4965781;28;20049;-72
2022/05/21 01:33:09;;;;;;;8.77;7.97;;;;;;;12.91;76.53;101381.72;4965376;28;20026;-73
2022/05/21 01:35:34;;;;;;;8.75;8.05;;;;;;;12.98;76.63;101382.84;4965362;28;20014;-73
2022/05/21 01:38:00;;;;;;;9.10;8.23;;;;;;;13.06;75.97;101385.66;4959871;28;20034;-73
2022/05/21 01:40:25;;;;;;;9.27;8.15;;;;;;;13.09;76.13;101395.19;4958797;28;20022;-73
2022/05/21 01:45:35;;;;;;;11.35;8.35;;;;;;;12.95;75.92;101388.44;4960942;28;20025;-72
2022/05/21 01:48:02;;;;;;;9.60;8.52;;;;;;;12.98;76.43;101393.47;4925971;28;20018;-73
2022/05/21 01:50:28;;;;;;;10.10;8.88;;;;;;;12.98;75.83;101388.16;4961869;28;20028;-72
2022/05/21 01:52:54;;;;;;;11.35;8.30;;;;;;;13.01;75.53;101395.03;4978589;28;20121;-72
2022/05/21 01:55:19;;;;;;;9.43;8.05;;;;;;;12.87;76.38;101401.56;4961673;27;20017;-73
2022/05/21 01:57:44;;;;;;;11.70;8.55;;;;;;;12.94;76.50;101391.25;4983282;27;20146;-73
2022/05/21 02:00:10;;;;;;;10.18;8.48;;;;;;;12.95;76.50;101393.75;5015302;27;20752;-73
2022/05/21 02:02:35;;;;;;;9.73;8.52;;;;;;;12.87;76.90;101396.25;4981715;27;20220;-72
2022/05/21 02:05:01;;;;;;;8.95;7.93;;;;;;;12.89;76.63;101397.78;4997190;27;20025;-74
2022/05/21 02:07:26;;;;;;;10.57;8.10;;;;;;;12.85;76.67;101387.59;5033673;27;20020;-73
2022/05/21 02:09:51;;;;;;;8.68;7.82;;;;;;;12.85;77.11;101393.72;5000506;27;20751;-72
2022/05/21 02:12:18;;;;;;;9.88;8.18;;;;;;;12.80;77.03;101395.94;5016724;27;20250;-73
2022/05/21 02:14:44;;;;;;;12.00;8.25;;;;;;;12.78;76.95;101391.75;5005885;28;20070;-73
2022/05/21 02:17:09;;;;;;;9.38;7.53;;;;;;;12.78;76.51;101384.63;5006171;28;20006;-73
2022/05/21 02:19:34;;;;;;;10.95;7.10;;;;;;;12.84;76.53;101385.91;4995599;28;20041;-73
2022/05/21 02:22:00;;;;;;;8.80;7.28;;;;;;;12.82;76.53;101386.03;5006613;28;20024;-73
2022/05/21 02:24:25;;;;;;;8.30;7.43;;;;;;;12.73;76.36;101378.88;5015748;27;20020;-73
2022/05/21 02:26:50;;;;;;;6.85;6.25;;;;;;;12.81;76.25;101383.53;4979345;28;20292;-73
2022/05/21 02:29:18;;;;;;;9.40;6.35;;;;;;;12.79;76.23;101382.78;4992524;27;20465;-72
2022/05/21 02:31:43;;;;;;;9.95;6.25;;;;;;;12.86;76.45;101375.97;4994939;28;20144;-73
2022/05/21 02:34:09;;;;;;;7.32;6.15;;;;;;;12.76;76.22;101370.66;4980788;28;20009;-73
2022/05/21 02:39:30;;;;;;;6.30;4.93;;;;;;;12.71;74.79;101379.00;4982862;28;20091;-72
2022/05/21 02:41:59;;;;;;;5.10;4.60;;;;;;;12.68;75.03;101371.31;5014239;28;20038;-72
2022/05/21 02:44:24;;;;;;;6.47;4.63;;;;;;;12.59;75.13;101368.63;4963468;28;20043;-73
2022/05/21 02:46:51;;;;;;;6.20;4.20;;;;;;;12.73;74.65;101367.41;4985683;28;20007;-72
2022/05/21 02:49:16;;;;;;;5.78;4.00;;;;;;;12.68;74.66;101371.31;4993107;28;20050;-73
2022/05/21 02:51:41;;;;;;;4.50;3.67;;;;;;;12.66;74.77;101375.94;4990855;28;20280;-73
2022/05/21 02:54:07;;;;;;;5.85;3.97;;;;;;;12.58;74.65;101367.81;4975912;28;20006;-72
2022/05/21 02:56:33;;;;;;;4.30;3.28;;;;;;;12.73;74.29;101368.25;4995081;28;20005;-72
2022/05/21 02:58:58;;;;;;;5.03;3.20;;;;;;;12.60;74.57;101357.03;4977269;28;20025;-73
2022/05/21 03:01:23;;;;;;;5.72;3.30;;;;;;;12.56;74.83;101369.72;4986747;28;20018;-73
2022/05/21 03:03:49;;;;;;;6.40;3.20;;;;;;;12.45;74.93;101365.38;4997850;28;20976;-73
2022/05/21 03:06:14;;;;;;;6.15;3.08;;;;;;;12.48;74.76;101374.88;5001669;28;20005;-73
2022/05/21 03:11:24;;;;;;;;;;;;;;;12.50;75.12;101380.91;5013756;28;20559;-73
2022/05/21 03:13:49;;;;;;;4.70;2.50;;;;;;;12.39;74.75;101373.84;5013796;28;19903;-73
2022/05/21 03:16:14;;;;;;;2.70;2.50;;;;;;;12.47;75.34;101381.16;5012964;28;20159;-72
2022/05/21 03:18:40;;;;;;;3.67;2.72;;;;;;;12.55;74.83;101391.97;4980372;28;20090;-72
2022/05/21 03:21:05;;;;;;;3.92;2.25;;;;;;;12.47;74.97;101382.00;4965130;28;20025;-73
2022/05/21 03:23:30;;;;;;;4.10;2.30;;;;;;;12.56;74.92;101390.13;4997722;28;20757;-73
2022/05/21 03:25:56;;;;;;;3.75;2.63;;;;;;;12.60;74.72;101380.94;4996398;28;20021;-73
2022/05/21 03:28:21;;;;;;;4.03;2.30;;;;;;;12.68;74.57;101384.59;4978522;28;20027;-72
2022/05/21 03:30:47;;;;;;;4.80;2.28;;;;;;;12.75;74.72;101392.88;4993747;28;20531;-73
2022/05/21 03:33:12;;;;;;;5.00;2.60;;;;;;;12.64;74.77;101385.00;4981012;28;20120;-73
2022/05/21 03:35:38;;;;;;;4.65;2.42;;;;;;;12.73;73.49;101396.63;4998300;28;20005;-73
2022/05/21 03:38:04;;;;;;;5.70;2.17;;;;;;;12.75;73.76;101402.63;4980139;28;20028;-73
2022/05/21 03:40:30;;;;;;;3.85;2.03;;;;;;;12.73;74.26;101399.28;4963046;28;20005;-73
2022/05/21 03:42:55;;;;;;;6.65;2.60;;;;;;;12.75;73.97;101402.63;4993869;27;20037;-73
2022/05/21 03:45:21;;;;;;;5.20;2.20;;;;;;;12.80;73.87;101406.56;4984970;28;20036;-73
2022/05/21 03:47:47;;;;;;;5.43;2.08;;;;;;;12.76;73.53;101404.31;4966408;28;21273;-73
2022/05/21 03:50:14;;;;;;;5.43;2.50;;;;;;;12.70;73.93;101403.91;4989708;28;20247;-73
2022/05/21 03:52:39;;;;;;;3.22;1.73;;;;;;;12.77;74.63;101393.56;4972528;28;20129;-73
2022/05/21 03:55:05;;;;;;;3.80;1.98;;;;;;;12.83;74.02;101406.31;4958295;28;20025;-73
2022/05/21 03:57:31;;;;;;;4.65;1.95;;;;;;;12.96;73.30;101400.75;4968700;28;20354;-73
2022/05/21 03:59:57;;;;;;;3.60;1.77;;;;;;;12.92;73.22;101401.19;4970212;28;20958;-74
2022/05/21 04:02:25;;;;;;;5.68;1.90;;;;;;;12.92;73.23;101394.03;4971574;28;20119;-74
2022/05/21 04:04:51;;;;;;;3.28;1.83;;;;;;;12.90;73.58;101395.97;4971351;28;20015;-75
2022/05/21 04:07:16;;;;;;;3.80;1.80;;;;;;;12.96;73.83;101397.25;4953955;28;20021;-74
2022/05/21 04:09:42;;;;;;;6.18;2.03;;;;;;;13.05;73.06;101394.59;4969174;28;20417;-73
2022/05/21 04:12:08;;;;;;;4.25;1.80;;;;;;;13.02;72.74;101397.53;4970376;28;20038;-72
2022/05/21 04:14:33;;;;;;;4.38;1.88;;;;;;;12.94;73.12;101391.25;4979702;28;20060;-74
2022/05/21 04:17:00;;;;;;;2.25;1.60;;;;;;;13.04;72.73;101403.56;4986201;28;20195;-73
2022/05/21 04:19:25;;;;;;;5.60;2.08;;;;;;;13.00;72.65;101407.47;4990046;28;20006;-73
2022/05/21 04:21:51;;;;;;;5.68;1.80;;;;;;;13.00;72.67;101403.97;4975539;28;20481;-74
2022/05/21 04:24:17;;;;;;;4.93;1.90;;;;;;;13.03;72.71;101407.19;4974952;28;20089;-73
2022/05/21 04:26:42;;;;;;;2.85;1.65;;;;;;;13.01;72.47;101408.31;4958052;28;20664;-74
2022/05/21 04:29:08;;;;;;;4.15;1.80;;;;;;;13.02;72.80;101410.81;4957171;28;20025;-74
2022/05/21 04:31:33;;;;;;;5.65;1.60;;;;;;;13.12;72.49;101418.81;4972539;28;20176;-74
2022/05/21 04:33:58;;;;;;;4.25;1.70;;;;;;;13.03;72.64;101415.16;4988696;28;20030;-74
2022/05/21 04:36:24;;;;;;;3.95;1.70;;;;;;;13.01;72.92;101414.44;4974701;28;20772;-74
2022/05/21 04:38:51;;;;;;;3.50;1.80;;;;;;;12.99;72.83;101411.09;4976117;28;20589;-74
2022/05/21 04:41:17;;;;;;;6.72;1.85;;;;;;;13.15;71.92;101415.06;4972407;28;20485;-73
2022/05/21 04:43:42;;;;;;;4.05;1.80;;;;;;;13.05;72.30;101420.34;4955328;28;20036;-74
2022/05/21 04:46:08;;;;;;;3.05;1.60;;;;;;;12.96;72.69;101422.00;5001882;28;20021;-74
2022/05/21 04:48:34;;;;;;;6.55;1.75;;;;;;;13.01;72.49;101414.44;4994194;28;20803;-74
2022/05/21 04:51:00;;;;;;;7.22;2.00;;;;;;;12.98;72.72;101420.03;4993677;28;20033;-73
2022/05/21 04:53:25;;;;;;;5.53;1.60;;;;;;;13.14;72.62;101424.00;4996362;28;20744;-73
2022/05/21 04:55:50;;;;;;;6.05;1.70;;;;;;;13.18;72.23;101430.72;4997962;27;20040;-73
2022/05/21 04:58:16;;;;;;;6.72;2.10;;;;;;;13.11;73.18;101427.75;4979181;28;20927;-75
2022/05/21 05:00:41;;;;;;;4.90;2.10;;;;;;;13.22;72.17;101432.13;4977923;28;20028;-73
2022/05/21 05:03:11;;;;;;;3.95;1.83;;;;;;;13.19;72.15;101435.06;4973764;28;20033;-74
2022/05/21 05:05:38;;;;;;;5.68;1.98;;;;;;;13.23;72.06;101439.97;4991739;28;20125;-74
2022/05/21 05:08:04;;;;;;;2.60;1.70;;;;;;;13.25;71.46;101445.13;4975738;28;20005;-73
2022/05/21 05:10:29;;;;;;;3.20;1.60;;;;;;;13.18;71.67;101441.34;4992888;28;20078;-73
2022/05/21 05:12:55;;;;;;;5.40;2.00;;;;;;;13.12;72.24;101434.75;4976706;28;20036;-73
2022/05/21 05:15:20;;;;;;;5.07;2.10;;;;;;;13.03;72.69;101438.25;5003313;28;20942;-74
2022/05/21 05:17:45;;;;;;;8.57;2.13;;;;;;;13.04;72.42;101456.72;4942059;28;20436;-76
2022/05/21 05:20:11;;;;;;;5.15;1.80;;;;;;;13.06;72.08;101446.78;4935678;28;20026;-74
2022/05/21 05:22:36;;;;;;;4.65;1.80;;;;;;;13.22;71.97;101450.72;4946731;28;21037;-74
2022/05/21 05:25:04;;;;;;;4.32;1.80;;;;;;;13.29;71.75;101454.53;4952658;28;20031;-74
2022/05/21 05:27:29;;;;;;;5.28;1.98;;;;;;;13.23;72.22;101450.59;4916306;28;20275;-73
2022/05/21 05:29:54;;;;;;;4.57;1.95;;;;;;;13.34;72.14;101451.44;4935550;28;20731;-74
2022/05/21 05:32:20;;;;;;;4.80;1.85;;;;;;;13.36;72.28;101461.00;4931182;28;20042;-74
2022/05/21 05:34:45;;;;;;;5.60;1.80;;;;;;;13.37;72.32;101461.84;4954081;28;20765;-75
2022/05/21 05:37:11;;;;;;;4.30;2.30;;;;;;;13.47;71.83;101467.19;4970372;28;20010;-74
2022/05/21 05:39:37;;;;;;;4.65;2.22;;;;;;;13.43;72.37;101463.94;4954714;28;20113;-74
2022/05/21 05:42:04;;;;;;;5.78;2.42;;;;;;;13.39;71.63;101458.06;4973843;28;20983;-75
2022/05/21 05:44:31;;;;;;;6.22;2.10;;;;;;;13.24;71.85;101462.09;4962291;28;20071;-73
2022/05/21 05:46:56;;;;;;;6.97;2.30;;;;;;;13.31;71.78;101457.91;4987908;28;20044;-74
2022/05/21 05:49:21;;;;;;;5.05;2.45;;;;;;;13.48;71.56;101466.19;4975104;28;20877;-73
2022/05/21 05:51:47;;;;;;;4.32;2.13;;;;;;;13.49;71.25;101471.38;4988793;28;20593;-74
2022/05/21 05:54:12;;;;;;;6.30;2.53;;;;;;;13.53;70.40;101461.31;4988852;28;20083;-73
2022/05/21 05:56:42;;;;;;;5.28;2.30;;;;;;;13.53;70.27;101461.31;4975377;28;20038;-74
2022/05/21 06:02:58;;;;;;;4.70;2.50;;;;;;;13.47;70.18;101461.88;4992553;27;20492;-74
2022/05/21 06:04:37;;;;;;;4.72;2.47;;;;;;;13.59;70.44;101466.06;5009224;28;20021;-74
2022/05/21 06:07:02;;;;;;;4.32;2.40;;;;;;;13.68;69.74;101473.22;4977162;28;20017;-74
2022/05/21 06:09:28;;;;;;;2.78;2.20;;;;;;;13.60;69.19;101467.75;4977130;28;20523;-73
2022/05/21 06:11:53;;;;;;;4.93;2.55;;;;;;;13.64;69.95;101469.16;4978057;28;20359;-74
2022/05/21 06:14:19;;;;;;;7.40;2.58;;;;;;;13.74;69.24;101467.31;4953152;28;20005;-73
2022/05/21 06:16:44;;;;;;;5.55;2.42;;;;;;;13.67;69.26;101478.69;4956942;28;20997;-73
2022/05/21 06:19:10;;;;;;;3.20;2.17;;;;;;;13.67;69.20;101474.19;4972994;28;20006;-74
2022/05/21 06:21:35;;;;;;;4.13;2.40;;;;;;;13.80;69.44;101475.75;4969643;28;20018;-75
2022/05/21 06:24:01;;;;;;;7.43;2.65;;;;;;;13.78;69.44;101481.19;4990349;28;20037;-75
2022/05/21 06:26:26;;;;;;;5.20;2.67;;;;;;;13.66;69.52;101483.13;4966743;28;20839;-74
2022/05/21 06:28:51;;;;;;;8.27;2.75;;;;;;;13.77;69.46;101482.19;4975713;28;20079;-74
2022/05/21 06:31:17;;;;;;;7.55;2.28;;;;;;;13.80;69.06;101483.72;4990030;28;20200;-74
2022/05/21 06:33:42;;;;;;;6.65;2.60;;;;;;;13.78;70.02;101469.72;5010613;28;20347;-74
2022/05/21 06:36:09;;;;;;;7.15;3.05;;;;;;;13.81;69.48;101474.78;4982542;28;20009;-74
2022/05/21 06:38:34;;;;;;;8.25;2.85;;;;;;;13.70;68.97;101479.22;4959023;28;20022;-75
2022/05/21 06:41:01;;;;;;;6.13;3.00;;;;;;;13.69;69.73;101485.53;4937135;28;20586;-74
2022/05/21 06:43:26;;;;;;;7.78;2.97;;;;;;;13.80;69.31;101489.03;4937959;28;20685;-74
2022/05/21 06:45:52;;;;;;;6.72;3.00;;;;;;;13.80;69.13;101476.56;4976704;28;20018;-74
2022/05/21 06:48:17;;;;;;;6.68;3.20;;;;;;;13.85;69.15;101481.50;4972095;28;20024;-74
2022/05/21 06:50:42;;;;;;;13.00;3.80;;;;;;;13.91;68.32;101472.94;4971817;28;20729;-74
2022/05/21 06:53:08;;;;;;;6.95;3.05;;;;;;;14.06;67.93;101484.84;4971419;28;20573;-74
2022/05/21 06:55:33;;;;;;;8.25;2.92;;;;;;;14.01;68.89;101479.09;4937996;28;20217;-75
2022/05/21 06:57:58;;;;;;;9.95;3.78;;;;;;;14.20;68.82;101486.22;4954848;28;20053;-73
2022/05/21 07:00:24;;;;;;;6.82;3.65;;;;;;;14.18;67.77;101487.34;4971825;28;20016;-74
2022/05/21 07:02:50;;;;;;;7.32;3.33;;;;;;;14.21;67.74;101495.91;4973190;28;20047;-74
2022/05/21 07:08:00;;;;;;;7.65;3.83;;;;;;;14.13;67.49;101492.25;4976183;28;20021;-74
2022/05/21 07:10:26;;;;;;;7.20;3.60;;;;;;;14.03;67.02;101494.91;4954697;28;20531;-76
2022/05/21 07:12:51;;;;;;;7.15;3.50;;;;;;;13.96;68.21;101504.44;4972996;28;20258;-73
2022/05/21 07:15:17;;;;;;;6.80;3.60;;;;;;;14.04;68.37;101502.75;4970668;28;20180;-74
2022/05/21 07:17:43;;;;;;;6.10;3.85;;;;;;;14.09;67.61;101495.19;4957908;28;20022;-74
2022/05/21 07:20:10;;;;;;;5.70;3.40;;;;;;;14.02;68.07;101501.22;4938123;28;20087;-74
2022/05/21 07:22:42;;;;;;;8.23;3.60;;;;;;;14.02;68.18;101509.22;4953727;28;20055;-73
2022/05/21 07:25:10;;;;;;;6.00;3.55;;;;;;;14.15;69.29;101504.44;4961864;28;20168;-74
2022/05/21 07:27:35;;;;;;;5.03;3.45;;;;;;;14.10;68.79;101512.03;4958947;28;20421;-74
2022/05/21 07:30:00;;;;;;;6.53;3.70;;;;;;;14.20;68.09;101511.97;4956261;28;20802;-75
2022/05/21 07:32:29;;;;;;;6.93;3.70;;;;;;;14.25;67.71;101515.91;4980066;27;20033;-74
2022/05/21 07:34:58;;;;;;;6.43;3.55;;;;;;;14.30;68.43;101507.50;4993906;28;20014;-74
2022/05/21 07:37:24;;;;;;;9.13;3.67;;;;;;;14.43;67.54;101512.53;4962688;28;20013;-74
2022/05/21 07:39:49;;;;;;;8.20;3.72;;;;;;;14.43;67.48;101513.34;4992527;28;20211;-74
2022/05/21 07:42:15;;;;;;;8.57;3.72;;;;;;;14.24;67.63;101518.69;4975259;28;20244;-74
2022/05/21 07:44:40;;;;;;;7.68;3.67;;;;;;;14.30;67.63;101512.84;4964180;28;20033;-74
2022/05/21 07:47:06;;;;;;;12.95;3.78;;;;;;;14.56;66.19;101526.34;5009616;28;20841;-73
2022/05/21 07:49:31;;;;;;;9.52;3.63;;;;;;;14.48;66.61;101528.94;5009485;28;20437;-74
2022/05/21 07:51:59;;;;;;;7.63;3.38;;;;;;;14.57;66.54;101524.56;4973597;28;20036;-74
2022/05/21 07:54:24;;;;;;;9.02;3.40;;;;;;;14.80;66.15;101530.41;5009495;28;20092;-75
2022/05/21 07:56:49;;;;;;;7.70;3.70;;;;;;;14.80;65.96;101530.41;4973545;28;20433;-74
2022/05/21 07:59:15;;;;;;;9.73;3.58;;;;;;;14.77;65.60;101522.69;4976126;28;20890;-74
2022/05/21 08:01:40;;;;;;;8.43;3.30;;;;;;;15.13;65.40;101520.19;4971961;28;20005;-74
2022/05/21 08:04:05;;;;;;;10.15;3.83;;;;;;;15.45;65.55;101532.22;4991271;28;20031;-74
2022/05/21 08:06:31;;;;;;;8.18;3.50;;;;;;;15.49;63.48;101530.09;4974761;28;20008;-74
2022/05/21 08:08:57;;;;;;;6.15;3.20;;;;;;;15.35;63.36;101529.59;4991434;28;20010;-74
2022/05/21 08:11:22;;;;;;;6.75;3.50;;;;;;;15.32;63.41;101524.56;4970636;28;20045;-73
2022/05/21 08:13:48;;;;;;;6.30;3.55;;;;;;;15.32;65.06;101529.91;5008153;28;20040;-74
2022/05/21 08:16:14;;;;;;;6.93;3.80;;;;;;;15.58;63.94;101529.19;4989819;28;20016;-74
2022/05/21 08:18:40;;;;;;;8.02;3.50;;;;;;;15.58;63.69;101527.38;4974816;28;20022;-74
2022/05/21 08:21:06;;;;;;;7.43;3.42;;;;;;;15.71;63.88;101528.81;4987868;28;20024;-74
2022/05/21 08:28:59;;;;;;;9.05;3.60;;;;;;;15.72;62.21;101538.50;4981712;28;20794;-74
2022/05/21 08:31:25;;;;;;;7.78;3.80;;;;;;;15.80;60.88;101541.28;5011138;28;20029;-74
2022/05/21 08:33:50;;;;;;;8.63;3.30;;;;;;;16.02;61.55;101533.81;4993985;28;20048;-74
2022/05/21 08:36:16;;;;;;;9.80;2.92;;;;;;;15.95;59.05;101536.28;4995047;28;20029;-75
2022/05/21 08:38:41;;;;;;;6.13;2.30;;;;;;;16.14;57.32;101541.44;4993348;28;20928;-74
2022/05/21 08:41:18;;;;;;;6.18;2.50;;;;;;;16.31;57.13;101544.25;5009346;28;20408;-74
2022/05/21 08:43:49;;;;;;;5.72;2.40;;;;;;;16.48;57.34;101538.03;4993830;28;20037;-74
2022/05/21 08:46:46;;;;;;;3.53;1.92;;;;;;;16.56;57.16;101539.91;5011286;28;20029;-73
2022/05/21 08:49:23;;;;;;;6.32;2.38;;;;;;;17.06;56.26;101543.75;4993821;28;20039;-73
2022/05/21 08:52:14;;;;;;;9.02;2.83;;;;;;;16.91;55.46;101545.34;4974145;28;20044;-74
2022/05/21 08:54:43;;;;;;;5.00;2.70;;;;;;;16.72;56.36;101544.53;5011126;28;20022;-73
2022/05/21 08:57:12;;;;;;;7.07;3.30;;;;;;;16.54;55.77;101546.41;4977063;28;20009;-74
2022/05/21 08:59:42;;;;;;;5.07;2.42;;;;;;;16.26;56.17;101543.88;4973698;28;20109;-73
2022/05/21 09:02:14;;;;;;;7.35;2.97;;;;;;;16.16;57.35;101543.97;4968193;28;20054;-73
2022/05/21 09:04:40;;;;;;;4.97;2.50;;;;;;;16.51;56.37;101550.22;4972245;28;20034;-73
2022/05/21 09:07:12;;;;;;;8.93;2.88;;;;;;;16.88;55.03;101553.63;4968979;28;20280;-74
2022/05/21 09:09:46;;;;;;;5.20;2.35;;;;;;;17.32;55.93;101553.56;4971497;28;20033;-74
2022/05/21 09:12:18;;;;;;;7.72;2.97;;;;;;;17.87;54.15;101549.50;4970542;28;20046;-73
2022/05/21 09:14:45;;;;;;;4.25;2.22;;;;;;;18.26;54.95;101554.28;4990170;28;20157;-74
2022/05/21 09:17:14;;;;;;;7.32;2.90;;;;;;;17.92;51.97;101551.72;4969676;28;20025;-74
2022/05/21 09:19:48;;;;;;;7.57;2.58;;;;;;;17.90;52.38;101543.00;4971190;28;20018;-73
2022/05/21 09:22:15;;;;;;;8.00;2.58;;;;;;;18.10;52.40;101544.38;4970479;28;20003;-74
2022/05/21 09:24:48;;;;;;;6.20;2.40;;;;;;;18.27;52.28;101553.25;4969767;28;20514;-73
2022/05/21 09:27:33;;;;;;;4.75;2.47;;;;;;;18.34;51.39;101554.25;4972241;28;20029;-74
2022/05/21 09:30:14;;;;;;;5.25;2.45;;;;;;;18.40;50.21;101550.06;4987746;28;20018;-74
2022/05/21 09:32:40;;;;;;;8.15;2.47;;;;;;;18.64;49.82;101535.81;4970245;28;20274;-74
2022/05/21 09:35:05;;;;;;;7.30;2.40;;;;;;;19.11;50.19;101547.59;4975056;28;20085;-74
2022/05/21 09:37:30;;;;;;;7.80;2.30;;;;;;;19.22;50.07;101547.22;5009546;27;20197;-76
2022/05/21 09:39:56;;;;;;;8.18;2.63;;;;;;;19.09;50.14;101541.53;5009013;28;20029;-74
2022/05/21 09:45:23;;;;;;;5.32;2.45;;;;;;;18.87;48.10;101545.84;4981136;28;20416;-74
2022/05/21 09:48:04;;;;;;;5.38;2.38;;;;;;;19.08;47.40;101536.34;4991001;28;20044;-75
2022/05/21 09:50:29;;;;;;;6.22;2.20;;;;;;;19.65;47.63;101516.44;4993991;28;20850;-74
2022/05/21 09:52:54;;;;;;;6.00;2.40;;;;;;;20.00;46.95;101517.72;4958469;28;20029;-74
2022/05/21 09:55:24;;;;;;;9.35;2.42;;;;;;;19.84;46.60;101516.03;4990234;28;20075;-74
2022/05/21 09:57:49;;;;;;;6.57;2.20;;;;;;;20.21;45.23;101527.81;4992298;28;20058;-75
2022/05/21 10:00:24;;;;;;;4.88;2.03;;;;;;;20.08;44.49;101525.72;4974040;28;20316;-74
2022/05/21 10:02:52;;;;;;;3.15;1.70;;;;;;;20.19;44.71;101527.16;4992131;28;20124;-74
2022/05/21 10:05:47;;;;;;;4.78;1.95;;;;;;;20.46;45.07;101530.28;4974683;28;20821;-74
2022/05/21 10:11:19;;;;;;;5.07;2.20;;;;;;;19.59;45.93;101522.50;4994111;28;20120;-74
2022/05/21 10:13:47;;;;;;;3.00;1.88;;;;;;;19.35;47.83;101521.66;4972834;28;20369;-74
2022/05/21 10:16:53;;;;;;;3.17;1.80;;;;;;;19.19;47.01;101531.47;4940949;28;20022;-74
2022/05/21 10:19:41;;;;;;;4.05;2.00;;;;;;;19.08;47.62;101531.00;4990904;28;20415;-75
2022/05/21 10:22:20;;;;;;;5.78;2.53;;;;;;;19.07;47.85;101524.81;4955351;28;20049;-74
2022/05/21 10:25:07;;;;;;;6.22;2.42;;;;;;;19.19;47.47;101528.78;4972498;28;20916;-76
2022/05/21 10:27:44;;;;;;;4.93;2.10;;;;;;;18.93;46.74;101529.03;4960881;28;20060;-74
2022/05/21 10:30:12;;;;;;;4.38;2.00;;;;;;;19.23;44.75;101534.63;4973071;28;20086;-74
2022/05/21 10:33:01;;;;;;;5.03;2.30;;;;;;;19.78;44.02;101522.06;4969999;28;20411;-74
2022/05/21 10:35:44;;;;;;;4.13;2.08;;;;;;;20.47;42.55;101515.78;4954002;28;20026;-74
2022/05/21 10:38:30;;;;;;;8.55;2.50;;;;;;;20.13;43.65;101525.19;4971748;28;20100;-74
2022/05/21 10:40:58;;;;;;;6.60;2.30;;;;;;;19.88;45.45;101533.44;4938346;28;20054;-74
2022/05/21 10:43:36;;;;;;;3.67;2.30;;;;;;;19.40;46.66;101532.69;4941527;28;20524;-75
2022/05/21 10:46:25;;;;;;;3.75;1.95;;;;;;;19.09;46.85;101533.50;4966915;28;20018;-74
2022/05/21 10:49:14;;;;;;;4.40;2.00;;;;;;;18.96;47.86;101535.91;4972476;28;20037;-74
2022/05/21 10:52:03;;;;;;;5.40;1.88;;;;;;;19.97;46.24;101536.09;4972721;28;20110;-74
2022/05/21 10:54:50;;;;;;;7.20;2.75;;;;;;;19.92;44.29;101528.53;4962051;28;20267;-74
2022/05/21 10:58:17;;;;;;;3.78;2.28;;;;;;;19.76;45.04;101534.84;4973121;28;20076;-74
2022/05/21 11:01:01;;;;;;;6.18;2.20;;;;;;;19.82;45.34;101536.00;4879841;28;20012;-74
2022/05/21 11:03:55;;;;;;;4.15;2.13;;;;;;;20.09;45.14;101540.00;4945181;28;20042;-74
2022/05/21 11:06:32;;;;;;;3.70;2.13;;;;;;;20.71;44.90;101543.50;4962271;28;20010;-74
2022/05/21 11:08:58;;;;;;;4.05;2.05;;;;;;;21.22;44.05;101532.81;4939196;28;20030;-74
2022/05/21 11:11:31;;;;;;;3.70;2.40;;;;;;;21.42;42.04;101530.34;4970896;28;20044;-74
2022/05/21 11:14:04;;;;;;;3.92;2.33;;;;;;;21.32;43.06;101523.59;4972821;28;20349;-74
2022/05/21 11:16:45;;;;;;;6.97;2.58;;;;;;;21.35;41.66;101510.59;4978287;28;20021;-74
2022/05/21 11:19:16;;;;;;;7.03;2.40;;;;;;;22.21;42.01;101508.94;4935376;28;20030;-74
2022/05/21 11:21:48;;;;;;;2.83;2.10;;;;;;;22.04;40.65;101516.47;4970514;28;20062;-75
2022/05/21 11:24:36;;;;;;;4.32;2.35;;;;;;;21.57;42.31;101506.09;4938679;28;20014;-75
2022/05/21 11:27:12;;;;;;;5.22;2.47;;;;;;;21.04;43.23;101521.59;4935273;28;20015;-74
2022/05/21 11:29:43;;;;;;;5.10;2.20;;;;;;;20.61;44.60;101516.84;4939753;28;20009;-75
2022/05/21 11:37:54;;;;;;;4.65;2.60;;;;;;;19.63;45.33;101524.69;4956420;28;20025;-73
2022/05/21 11:43:51;;;;;;;7.05;2.78;;;;;;;19.63;46.58;101529.22;4972598;28;20029;-74
2022/05/21 11:46:17;;;;;;;3.83;2.30;;;;;;;19.95;44.80;101527.34;4980060;28;20024;-75
2022/05/21 11:48:42;;;;;;;4.25;2.20;;;;;;;20.54;44.09;101526.66;4942169;28;20045;-74
2022/05/21 11:51:17;;;;;;;4.57;2.13;;;;;;;21.81;39.88;101525.59;4973316;28;20753;-74
2022/05/21 11:53:42;;;;;;;5.68;2.33;;;;;;;22.44;39.27;101527.63;5001062;28;20090;-74
2022/05/21 11:56:10;;;;;;;4.57;2.00;;;;;;;22.44;38.03;101522.22;4978373;28;20054;-74
2022/05/21 11:59:00;;;;;;;4.00;2.17;;;;;;;23.85;38.96;101518.25;4979388;28;20803;-74
2022/05/21 12:01:53;;;;;;;4.18;2.28;;;;;;;24.43;36.15;101522.25;5008542;28;20025;-76
2022/05/21 12:04:24;;;;;;;5.78;2.30;;;;;;;24.26;36.05;101514.56;4987594;28;20025;-75
2022/05/21 12:06:49;;;;;;;6.80;2.83;;;;;;;24.03;36.63;101516.84;4975053;28;20927;-74
2022/05/21 12:09:27;;;;;;;5.35;2.20;;;;;;;24.26;36.11;101519.97;4975875;28;20430;-77